Time;durP1;ratioP1;P1;durP2;ratioP2;P2;SDS_P1;SDS_P2;PMS_P1;PMS_P2;Temp;Humidity;BMP_temperature;BMP_pressure;BME280_temperature;BME280_humidity;BME280_pressure;Samples;Min_cycle;Max_cycle;Signal;HPM_P1;HPM_P2
2022/01/25 00:08:44;;;;;;;71.38;29.73;;;;;;;;;;5095170;28;20383;-80
2022/01/25 00:27:47;;;;;;;66.15;26.95;;;;;;;;;;5084416;28;20048;-81
2022/01/25 00:32:49;;;;;;;62.63;25.17;;;;;;;;;;5095221;28;20032;-81
2022/01/25 00:35:15;;;;;;;72.35;27.33;;;;;;;;;;5094212;28;20036;-79
2022/01/25 00:37:41;;;;;;;69.50;28.45;;;;;;;;;;5092992;28;20020;-81
2022/01/25 00:40:08;;;;;;;72.45;27.42;;;;;;;;;;5094330;28;20035;-80
2022/01/25 00:42:34;;;;;;;69.70;28.58;;;;;;;;;;5094234;28;20019;-80
2022/01/25 00:45:00;;;;;;;68.65;27.40;;;;;;;;;;5092904;28;20508;-77
2022/01/25 00:47:26;;;;;;;75.78;28.10;;;;;;;;;;5092706;28;20170;-79
2022/01/25 00:49:53;;;;;;;65.63;27.10;;;;;;;;;;5092836;28;20055;-77
2022/01/25 00:53:52;;;;;;;68.07;28.95;;;;;;;;;;5094195;28;20032;-81
2022/01/25 00:55:07;;;;;;;67.63;28.08;;;;;;;;;;5094052;28;20032;-78
2022/01/25 00:57:33;;;;;;;67.75;26.90;;;;;;;;;;5092705;28;20495;-73
2022/01/25 01:00:00;;;;;;;63.90;24.95;;;;;;;;;;5092661;28;20093;-81
2022/01/25 01:02:26;;;;;;;53.42;22.50;;;;;;;;;;5092497;28;20068;-77
2022/01/25 01:04:52;;;;;;;51.95;21.50;;;;;;;;;;5092554;28;20134;-79
2022/01/25 01:07:18;;;;;;;57.25;22.30;;;;;;;;;;5092494;28;20028;-75
2022/01/25 01:09:48;;;;;;;53.88;20.75;;;;;;;;;;5092415;28;20024;-79
2022/01/25 01:15:37;;;;;;;54.72;22.17;;;;;;;;;;5073815;28;20511;-78
2022/01/25 01:31:48;;;;;;;57.75;22.13;;;;;;;;;;5093630;28;20024;-80
2022/01/25 01:37:30;;;;;;;54.40;21.08;;;;;;;;;;5093836;28;20032;-79
2022/01/25 01:47:37;;;;;;;51.55;21.80;;;;;;;;;;5097528;28;20029;-80
2022/01/25 01:50:09;;;;;;;45.35;20.85;;;;;;;;;;5096178;28;20024;-79
2022/01/25 01:52:35;;;;;;;51.22;20.55;;;;;;;;;;5096158;28;20039;-73
2022/01/25 01:55:01;;;;;;;51.70;20.92;;;;;;;;;;5096085;28;20016;-80
2022/01/25 01:57:27;;;;;;;53.28;21.85;;;;;;;;;;5097804;28;20032;-79
2022/01/25 01:59:54;;;;;;;53.88;21.17;;;;;;;;;;5095923;28;20020;-79
2022/01/25 02:02:20;;;;;;;50.75;21.10;;;;;;;;;;5097241;28;20119;-79
2022/01/25 02:04:47;;;;;;;52.83;22.23;;;;;;;;;;5095962;28;20040;-78
2022/01/25 02:07:13;;;;;;;50.55;21.67;;;;;;;;;;5097141;28;20028;-80
2022/01/25 02:09:39;;;;;;;49.45;21.02;;;;;;;;;;5095832;28;20024;-79
2022/01/25 02:12:06;;;;;;;43.90;17.98;;;;;;;;;;5095764;28;20084;-77
2022/01/25 02:14:35;;;;;;;49.30;20.00;;;;;;;;;;5095705;28;20020;-79
2022/01/25 02:17:10;;;;;;;56.55;21.95;;;;;;;;;;5095635;28;20032;-78
2022/01/25 02:22:28;;;;;;;57.95;21.02;;;;;;;;;;5096852;28;20047;-76
2022/01/25 02:24:55;;;;;;;46.90;20.23;;;;;;;;;;5097438;28;20021;-77
2022/01/25 02:27:21;;;;;;;45.50;19.92;;;;;;;;;;5096660;28;20052;-80
2022/01/25 02:29:48;;;;;;;47.70;20.23;;;;;;;;;;5097002;28;20028;-80
2022/01/25 02:32:14;;;;;;;51.10;21.65;;;;;;;;;;5096702;28;20101;-73
2022/01/25 02:34:40;;;;;;;50.30;21.08;;;;;;;;;;5096700;28;20453;-75
2022/01/25 02:37:08;;;;;;;52.58;21.08;;;;;;;;;;5096630;28;20494;-78
2022/01/25 02:39:37;;;;;;;53.08;21.70;;;;;;;;;;5095319;28;20024;-79
2022/01/25 02:42:04;;;;;;;50.78;20.65;;;;;;;;;;5095248;28;20545;-81
2022/01/25 02:44:31;;;;;;;55.53;21.17;;;;;;;;;;5095371;28;20036;-81
2022/01/25 02:49:28;;;;;;;53.15;21.58;;;;;;;;;;5096949;28;20430;-80
2022/01/25 02:51:54;;;;;;;47.28;19.90;;;;;;;;;;5097266;28;20437;-73
2022/01/25 02:54:20;;;;;;;47.85;20.27;;;;;;;;;;5095136;28;20119;-73
2022/01/25 02:56:47;;;;;;;57.30;21.63;;;;;;;;;;5096167;28;20054;-76
2022/01/25 02:59:14;;;;;;;52.17;20.98;;;;;;;;;;5094925;28;20039;-79
2022/01/25 03:01:42;;;;;;;48.47;20.17;;;;;;;;;;5094720;28;20040;-79
2022/01/25 03:04:09;;;;;;;53.05;21.98;;;;;;;;;;5094752;28;20028;-81
2022/01/25 03:06:36;;;;;;;48.65;20.10;;;;;;;;;;5096263;28;20035;-78
2022/01/25 03:09:03;;;;;;;51.10;20.33;;;;;;;;;;5094654;28;20172;-79
2022/01/25 03:11:29;;;;;;;49.58;20.15;;;;;;;;;;5094877;28;20070;-79
2022/01/25 03:13:59;;;;;;;44.03;19.23;;;;;;;;;;5094629;28;20456;-77
2022/01/25 03:18:56;;;;;;;53.17;20.35;;;;;;;;;;5096590;28;20031;-81
2022/01/25 03:23:49;;;;;;;52.97;21.23;;;;;;;;;;5095639;28;20020;-79
2022/01/25 03:26:15;;;;;;;55.55;23.05;;;;;;;;;;5094019;28;20031;-72
2022/01/25 03:28:42;;;;;;;51.25;22.13;;;;;;;;;;5094449;28;20051;-79
2022/01/25 03:31:08;;;;;;;50.03;21.23;;;;;;;;;;5094148;28;20027;-80
2022/01/25 03:33:35;;;;;;;52.70;21.50;;;;;;;;;;5094271;28;20038;-72
2022/01/25 03:36:01;;;;;;;49.40;20.77;;;;;;;;;;5095495;28;20141;-80
2022/01/25 03:38:27;;;;;;;49.60;21.02;;;;;;;;;;5094106;28;20024;-79
2022/01/25 03:40:54;;;;;;;58.08;22.90;;;;;;;;;;5094030;28;20036;-79
2022/01/25 03:43:20;;;;;;;51.92;22.48;;;;;;;;;;5093939;28;20028;-79
2022/01/25 03:45:59;;;;;;;48.05;20.75;;;;;;;;;;5095769;28;20035;-79
2022/01/25 03:50:52;;;;;;;52.33;21.10;;;;;;;;;;5095107;28;20024;-78
2022/01/25 03:53:19;;;;;;;55.33;22.70;;;;;;;;;;5095055;28;20028;-79
2022/01/25 03:55:46;;;;;;;55.97;22.98;;;;;;;;;;5093843;28;20119;-80
2022/01/25 03:58:13;;;;;;;50.13;21.90;;;;;;;;;;5093795;28;20115;-80
2022/01/25 04:00:40;;;;;;;57.20;23.40;;;;;;;;;;5092820;28;20115;-80
2022/01/25 04:03:18;;;;;;;47.67;20.50;;;;;;;;;;5093527;28;20528;-79
2022/01/25 04:08:11;;;;;;;53.15;21.38;;;;;;;;;;5094862;28;20038;-79
2022/01/25 04:10:39;;;;;;;53.53;22.20;;;;;;;;;;5095297;28;20028;-77
2022/01/25 04:13:05;;;;;;;53.75;22.08;;;;;;;;;;5094941;28;20059;-79
2022/01/25 04:15:32;;;;;;;58.35;22.85;;;;;;;;;;5093459;28;20031;-80
2022/01/25 04:18:18;;;;;;;50.17;22.65;;;;;;;;;;5094666;28;20028;-80
2022/01/25 04:20:57;;;;;;;52.20;23.08;;;;;;;;;;5094751;28;20039;-79
2022/01/25 04:26:08;;;;;;;54.30;22.13;;;;;;;;;;5094687;28;20491;-77
2022/01/25 04:28:34;;;;;;;55.33;23.25;;;;;;;;;;5093193;28;20126;-80
2022/01/25 04:31:01;;;;;;;44.65;20.85;;;;;;;;;;5094624;28;20032;-77
2022/01/25 04:33:38;;;;;;;49.00;21.83;;;;;;;;;;5093048;28;20024;-78
2022/01/25 04:49:55;;;;;;;55.80;23.13;;;;;;;;;;5094432;28;20035;-81
2022/01/25 04:52:25;;;;;;;55.00;22.58;;;;;;;;;;5092710;28;20024;-80
2022/01/25 04:58:00;;;;;;;51.80;23.35;;;;;;;;;;5051686;28;20033;-79
2022/01/25 05:00:28;;;;;;;57.90;23.20;;;;;;;;;;5083228;28;20043;-81
2022/01/25 05:03:08;;;;;;;55.65;21.67;;;;;;;;;;5092705;28;20024;-80
2022/01/25 05:05:54;;;;;;;56.33;22.98;;;;;;;;;;5092792;28;20028;-81
2022/01/25 05:11:05;;;;;;;53.78;23.33;;;;;;;;;;5093843;28;20085;-79
2022/01/25 05:16:16;;;;;;;59.38;24.23;;;;;;;;;;5094802;28;20031;-79
2022/01/25 05:18:46;;;;;;;65.25;26.52;;;;;;;;;;5093787;28;20073;-78
2022/01/25 05:23:57;;;;;;;50.42;22.05;;;;;;;;;;5094563;28;20031;-80
2022/01/25 05:26:24;;;;;;;64.53;24.95;;;;;;;;;;5092017;28;20024;-78
2022/01/25 05:28:50;;;;;;;55.15;23.27;;;;;;;;;;5092357;28;20377;-79
2022/01/25 05:31:16;;;;;;;55.03;23.88;;;;;;;;;;5093028;28;20028;-79
2022/01/25 05:33:42;;;;;;;54.65;23.25;;;;;;;;;;5091309;28;20020;-79
2022/01/25 05:36:09;;;;;;;52.20;22.70;;;;;;;;;;5091682;28;20035;-71
2022/01/25 05:38:35;;;;;;;60.10;24.20;;;;;;;;;;5091942;28;20093;-78
2022/01/25 05:41:03;;;;;;;57.00;22.83;;;;;;;;;;5093365;28;20028;-81
2022/01/25 05:46:12;;;;;;;56.45;22.33;;;;;;;;;;5093671;28;20032;-78
2022/01/25 05:48:39;;;;;;;57.80;23.63;;;;;;;;;;5090269;28;20028;-72
2022/01/25 05:51:05;;;;;;;60.88;24.52;;;;;;;;;;5091555;28;20024;-72
2022/01/25 05:53:31;;;;;;;56.13;23.55;;;;;;;;;;5091506;28;20036;-71
2022/01/25 05:55:58;;;;;;;54.83;22.30;;;;;;;;;;5093139;28;20024;-70
2022/01/25 05:58:24;;;;;;;52.97;22.80;;;;;;;;;;5093483;28;20055;-71
2022/01/25 06:00:50;;;;;;;59.03;24.25;;;;;;;;;;5091507;28;20097;-75
2022/01/25 06:03:17;;;;;;;56.30;24.23;;;;;;;;;;5092408;28;20093;-75
2022/01/25 06:05:43;;;;;;;58.92;23.17;;;;;;;;;;5091610;28;20496;-71
2022/01/25 06:08:09;;;;;;;54.88;23.05;;;;;;;;;;5091781;28;20093;-76
2022/01/25 06:10:37;;;;;;;54.10;22.15;;;;;;;;;;5093022;28;20032;-74
2022/01/25 06:13:03;;;;;;;56.22;23.10;;;;;;;;;;5091688;28;20051;-77
2022/01/25 06:15:29;;;;;;;60.15;24.55;;;;;;;;;;5091646;28;20035;-74
2022/01/25 06:17:55;;;;;;;51.63;22.15;;;;;;;;;;5091396;28;20031;-72
2022/01/25 06:20:22;;;;;;;51.75;23.95;;;;;;;;;;5091636;28;20153;-74
2022/01/25 06:22:48;;;;;;;54.08;22.20;;;;;;;;;;5091590;28;20139;-71
2022/01/25 06:25:15;;;;;;;100.05;40.40;;;;;;;;;;5093832;28;20021;-76
2022/01/25 06:27:42;;;;;;;61.30;24.15;;;;;;;;;;5095107;28;20114;-71
2022/01/25 06:30:08;;;;;;;52.72;23.70;;;;;;;;;;5095211;28;20021;-71
2022/01/25 06:32:35;;;;;;;59.45;25.48;;;;;;;;;;5096492;28;20064;-73
2022/01/25 06:35:02;;;;;;;52.08;23.08;;;;;;;;;;5095270;28;20047;-76
2022/01/25 06:37:28;;;;;;;55.92;23.95;;;;;;;;;;5095069;28;20059;-76
2022/01/25 06:39:54;;;;;;;61.38;25.25;;;;;;;;;;5094951;28;20114;-75
2022/01/25 06:42:22;;;;;;;54.15;23.83;;;;;;;;;;5094875;28;20082;-74
2022/01/25 06:44:52;;;;;;;58.42;22.45;;;;;;;;;;5094703;28;20418;-76
2022/01/25 06:47:18;;;;;;;53.83;22.45;;;;;;;;;;5096310;28;20085;-76
2022/01/25 06:49:44;;;;;;;60.10;23.33;;;;;;;;;;5096406;28;20024;-76
2022/01/25 06:52:11;;;;;;;58.63;24.75;;;;;;;;;;5094924;28;20063;-76
2022/01/25 06:54:38;;;;;;;57.97;24.73;;;;;;;;;;5096065;28;20032;-76
2022/01/25 06:57:04;;;;;;;63.35;26.45;;;;;;;;;;5096181;28;20055;-76
2022/01/25 06:59:30;;;;;;;58.10;24.33;;;;;;;;;;5095765;28;20353;-76
2022/01/25 07:01:56;;;;;;;52.10;23.92;;;;;;;;;;5095811;28;20085;-76
2022/01/25 07:04:22;;;;;;;59.88;23.83;;;;;;;;;;5096252;28;20020;-78
2022/01/25 07:06:49;;;;;;;56.75;23.70;;;;;;;;;;5095803;28;20028;-72
2022/01/25 07:09:15;;;;;;;53.70;24.17;;;;;;;;;;5096035;28;20027;-73
2022/01/25 07:11:41;;;;;;;56.65;23.55;;;;;;;;;;5095516;28;20032;-74
2022/01/25 07:14:07;;;;;;;54.97;23.05;;;;;;;;;;5096208;28;20032;-74
2022/01/25 07:16:33;;;;;;;63.50;25.63;;;;;;;;;;5094539;28;20035;-75
2022/01/25 07:18:59;;;;;;;66.35;26.10;;;;;;;;;;5093960;28;20540;-74
2022/01/25 07:21:26;;;;;;;64.22;26.42;;;;;;;;;;5094023;28;20036;-73
2022/01/25 07:23:52;;;;;;;60.55;25.83;;;;;;;;;;5095844;28;20024;-72
2022/01/25 07:26:18;;;;;;;56.97;24.35;;;;;;;;;;5093817;28;20024;-74
2022/01/25 07:28:44;;;;;;;55.53;24.40;;;;;;;;;;5095222;28;20024;-73
2022/01/25 07:31:10;;;;;;;49.95;22.88;;;;;;;;;;5095435;28;20036;-73
2022/01/25 07:33:37;;;;;;;55.92;24.13;;;;;;;;;;5095156;28;20074;-73
2022/01/25 07:36:05;;;;;;;57.63;23.60;;;;;;;;;;5095656;28;20457;-73
2022/01/25 07:38:31;;;;;;;47.65;21.92;;;;;;;;;;5095239;28;20024;-74
2022/01/25 07:40:57;;;;;;;54.58;23.58;;;;;;;;;;5095379;28;20089;-74
2022/01/25 07:43:23;;;;;;;52.50;25.35;;;;;;;;;;5093802;28;20396;-74
2022/01/25 07:45:52;;;;;;;55.38;24.63;;;;;;;;;;5093764;28;20082;-74
2022/01/25 07:48:19;;;;;;;54.03;25.38;;;;;;;;;;5093843;28;20024;-73
2022/01/25 07:50:45;;;;;;;59.55;26.73;;;;;;;;;;5093831;28;20073;-72
2022/01/25 07:53:11;;;;;;;47.65;22.52;;;;;;;;;;5094879;28;20036;-73
2022/01/25 07:55:37;;;;;;;61.20;26.33;;;;;;;;;;5094801;28;20430;-74
2022/01/25 07:58:04;;;;;;;54.40;23.38;;;;;;;;;;5093589;28;20114;-72
2022/01/25 08:00:30;;;;;;;54.45;23.33;;;;;;;;;;5094724;28;20028;-72
2022/01/25 08:02:56;;;;;;;52.08;23.73;;;;;;;;;;5094823;28;20038;-74
2022/01/25 08:05:24;;;;;;;50.22;23.77;;;;;;;;;;5093634;28;20026;-75
2022/01/25 08:07:50;;;;;;;53.35;25.55;;;;;;;;;;5094972;28;20020;-74
2022/01/25 08:10:17;;;;;;;52.53;25.98;;;;;;;;;;5094869;28;20055;-74
2022/01/25 08:12:43;;;;;;;53.95;26.42;;;;;;;;;;5094334;28;20051;-75
2022/01/25 08:15:10;;;;;;;62.08;27.27;;;;;;;;;;5093298;28;20082;-74
2022/01/25 08:17:36;;;;;;;55.88;27.50;;;;;;;;;;5093172;28;20028;-73
2022/01/25 08:20:03;;;;;;;57.75;28.02;;;;;;;;;;5093006;28;20024;-73
2022/01/25 08:22:30;;;;;;;59.28;24.75;;;;;;;;;;5093112;28;20396;-73
2022/01/25 08:24:56;;;;;;;62.30;28.60;;;;;;;;;;5093061;28;20074;-73
2022/01/25 08:27:24;;;;;;;54.65;25.95;;;;;;;;;;5092873;28;20058;-74
2022/01/25 08:29:51;;;;;;;57.95;25.70;;;;;;;;;;5094583;28;20024;-73
2022/01/25 08:32:19;;;;;;;58.25;26.98;;;;;;;;;;5093950;28;20464;-74
2022/01/25 08:34:45;;;;;;;58.92;28.42;;;;;;;;;;5094491;28;20028;-75
2022/01/25 08:37:11;;;;;;;61.85;27.92;;;;;;;;;;5094088;28;20048;-73
2022/01/25 08:39:37;;;;;;;54.90;26.45;;;;;;;;;;5093695;28;20028;-77
2022/01/25 08:42:04;;;;;;;54.95;27.63;;;;;;;;;;5092542;28;20503;-73
2022/01/25 08:44:30;;;;;;;53.78;26.30;;;;;;;;;;5092429;28;20024;-73
2022/01/25 08:46:56;;;;;;;60.00;28.38;;;;;;;;;;5093250;28;20033;-73
2022/01/25 08:49:23;;;;;;;57.75;27.42;;;;;;;;;;5092660;28;20024;-74
2022/01/25 08:51:49;;;;;;;51.75;25.40;;;;;;;;;;5092758;28;20433;-74
2022/01/25 08:54:16;;;;;;;51.17;26.08;;;;;;;;;;5092589;28;20388;-74
2022/01/25 08:56:43;;;;;;;58.08;26.85;;;;;;;;;;5092390;28;20077;-74
2022/01/25 08:59:09;;;;;;;61.90;26.55;;;;;;;;;;5092504;28;20024;-73
2022/01/25 09:01:35;;;;;;;58.03;27.48;;;;;;;;;;5092183;28;20042;-73
2022/01/25 09:04:01;;;;;;;57.42;27.20;;;;;;;;;;5092969;28;20113;-74
2022/01/25 09:06:28;;;;;;;62.58;29.73;;;;;;;;;;5093711;28;20494;-74
2022/01/25 09:08:59;;;;;;;53.00;27.13;;;;;;;;;;5092375;28;20418;-73
2022/01/25 09:11:25;;;;;;;57.53;29.02;;;;;;;;;;5092266;28;20031;-74
2022/01/25 09:13:51;;;;;;;57.90;28.17;;;;;;;;;;5092121;28;20024;-74
2022/01/25 09:16:17;;;;;;;58.90;27.70;;;;;;;;;;5092294;28;20435;-74
2022/01/25 09:18:43;;;;;;;56.35;27.88;;;;;;;;;;5092268;28;20020;-75
2022/01/25 09:21:10;;;;;;;61.00;29.38;;;;;;;;;;5093688;28;20068;-74
2022/01/25 09:23:36;;;;;;;71.40;32.22;;;;;;;;;;5092104;28;20129;-74
2022/01/25 09:26:03;;;;;;;67.30;29.50;;;;;;;;;;5093769;28;20036;-73
2022/01/25 09:28:30;;;;;;;58.33;28.20;;;;;;;;;;5093165;28;20048;-75
2022/01/25 09:30:56;;;;;;;53.95;26.60;;;;;;;;;;5093608;28;20028;-74
2022/01/25 09:33:23;;;;;;;51.40;24.98;;;;;;;;;;5091927;28;20027;-75
2022/01/25 09:35:50;;;;;;;49.00;24.27;;;;;;;;;;5091984;28;20066;-74
2022/01/25 09:38:16;;;;;;;54.00;25.00;;;;;;;;;;5092044;28;20021;-74
2022/01/25 09:40:42;;;;;;;58.60;28.02;;;;;;;;;;5093226;28;20073;-73
2022/01/25 09:43:09;;;;;;;51.53;25.92;;;;;;;;;;5091927;28;20067;-74
2022/01/25 09:45:35;;;;;;;56.33;26.48;;;;;;;;;;5091505;28;20027;-75
2022/01/25 09:48:02;;;;;;;54.08;25.30;;;;;;;;;;5091686;28;20134;-73
2022/01/25 09:50:28;;;;;;;54.05;26.15;;;;;;;;;;5091857;28;20021;-74
2022/01/25 09:52:54;;;;;;;53.80;26.17;;;;;;;;;;5091899;28;20024;-75
2022/01/25 09:55:22;;;;;;;55.13;27.45;;;;;;;;;;5091912;28;20048;-74
2022/01/25 09:57:48;;;;;;;52.55;24.50;;;;;;;;;;5091723;28;20024;-73
2022/01/25 10:00:16;;;;;;;45.80;22.63;;;;;;;;;;5094318;28;20028;-73
2022/01/25 10:03:06;;;;;;;44.03;22.90;;;;;;;;;;5097062;28;20028;-74
2022/01/25 10:05:35;;;;;;;50.95;23.42;;;;;;;;;;5095681;28;20027;-74
2022/01/25 10:08:04;;;;;;;55.50;25.02;;;;;;;;;;5095799;28;20369;-74
2022/01/25 10:10:31;;;;;;;53.83;24.77;;;;;;;;;;5095844;28;20030;-74
2022/01/25 10:13:22;;;;;;;43.35;21.90;;;;;;;;;;5095665;28;20036;-74
2022/01/25 10:16:08;;;;;;;46.60;22.63;;;;;;;;;;5086019;28;20067;-73
2022/01/25 10:18:37;;;;;;;43.42;22.35;;;;;;;;;;5096806;28;20119;-73
2022/01/25 10:21:04;;;;;;;47.25;21.27;;;;;;;;;;5095569;28;20184;-74
2022/01/25 10:23:31;;;;;;;44.08;21.08;;;;;;;;;;5095517;28;20418;-77
2022/01/25 10:26:01;;;;;;;37.42;19.60;;;;;;;;;;5095504;28;20032;-77
2022/01/25 10:28:28;;;;;;;39.13;19.02;;;;;;;;;;5095293;28;20052;-76
2022/01/25 10:30:56;;;;;;;39.53;18.25;;;;;;;;;;5095406;28;20580;-77
2022/01/25 10:33:32;;;;;;;36.95;17.27;;;;;;;;;;5095364;28;20031;-77
2022/01/25 10:36:00;;;;;;;38.35;17.40;;;;;;;;;;5095283;28;20077;-77
2022/01/25 10:38:29;;;;;;;36.47;17.27;;;;;;;;;;5096779;28;20027;-76
2022/01/25 10:40:56;;;;;;;34.88;17.42;;;;;;;;;;5096383;28;20024;-74
2022/01/25 10:43:24;;;;;;;38.55;16.38;;;;;;;;;;5096353;28;20028;-76
2022/01/25 10:46:10;;;;;;;32.30;16.45;;;;;;;;;;5095038;28;20024;-76
2022/01/25 10:48:36;;;;;;;34.53;16.30;;;;;;;;;;5095057;28;20469;-75
2022/01/25 10:51:13;;;;;;;37.45;16.10;;;;;;;;;;5095000;28;20115;-74
2022/01/25 10:53:39;;;;;;;34.53;14.32;;;;;;;;;;5094834;28;20035;-76
2022/01/25 10:56:06;;;;;;;31.75;13.98;;;;;;;;;;5096202;28;20020;-75
2022/01/25 10:58:36;;;;;;;32.17;14.07;;;;;;;;;;5094865;28;20039;-79
2022/01/25 11:01:02;;;;;;;33.28;13.38;;;;;;;;;;5095162;28;20035;-74
2022/01/25 11:03:30;;;;;;;28.92;12.95;;;;;;;;;;5094639;28;20039;-75
2022/01/25 11:05:58;;;;;;;29.73;13.35;;;;;;;;;;5094706;28;20024;-77
2022/01/25 11:08:27;;;;;;;28.08;13.52;;;;;;;;;;5096246;28;20384;-75
2022/01/25 11:10:57;;;;;;;27.77;10.73;;;;;;;;;;5094085;28;20389;-76
2022/01/25 11:15:59;;;;;;;28.33;12.43;;;;;;;;;;5095811;28;20206;-77
2022/01/25 11:18:25;;;;;;;30.20;13.55;;;;;;;;;;5094434;28;20027;-76
2022/01/25 11:20:52;;;;;;;27.50;12.35;;;;;;;;;;5094271;28;20512;-77
2022/01/25 11:23:18;;;;;;;26.00;10.32;;;;;;;;;;5094361;28;20060;-76
2022/01/25 11:25:45;;;;;;;29.92;12.45;;;;;;;;;;5094233;28;20035;-76
2022/01/25 11:28:12;;;;;;;25.83;11.73;;;;;;;;;;5094106;28;20401;-77
2022/01/25 11:30:40;;;;;;;26.05;10.25;;;;;;;;;;5095751;28;20031;-77
2022/01/25 11:33:07;;;;;;;17.65;7.03;;;;;;;;;;5094162;28;20039;-75
2022/01/25 11:35:34;;;;;;;17.02;7.70;;;;;;;;;;5094075;28;20445;-78
2022/01/25 11:38:00;;;;;;;11.80;4.55;;;;;;;;;;5094104;28;20487;-77
2022/01/25 11:40:26;;;;;;;11.73;5.78;;;;;;;;;;5094006;28;20039;-77
2022/01/25 11:42:54;;;;;;;12.13;4.75;;;;;;;;;;5093821;28;20027;-77
2022/01/25 11:45:21;;;;;;;10.27;4.47;;;;;;;;;;5093887;28;20473;-74
2022/01/25 11:47:49;;;;;;;13.85;6.45;;;;;;;;;;5095106;28;20020;-77
2022/01/25 11:50:15;;;;;;;13.15;6.18;;;;;;;;;;5095528;28;20432;-76
2022/01/25 11:52:48;;;;;;;12.00;5.47;;;;;;;;;;5097719;28;20030;-76
2022/01/25 11:55:14;;;;;;;;;;;;;;;;;;5099634;28;20020;-74
2022/01/25 11:57:53;;;;;;;16.10;7.40;;;;;;;;;;5098930;28;19911;-73
2022/01/25 12:00:23;;;;;;;16.50;7.45;;;;;;;;;;5095876;28;20028;-75
2022/01/25 12:02:53;;;;;;;17.20;7.25;;;;;;;;;;5113810;28;20032;-77
2022/01/25 12:05:26;;;;;;;14.93;6.93;;;;;;;;;;5093269;28;20020;-74
2022/01/25 12:08:28;;;;;;;17.33;7.22;;;;;;;;;;5094698;28;20575;-76
2022/01/25 12:11:05;;;;;;;16.77;7.90;;;;;;;;;;5096790;28;20431;-76
2022/01/25 12:13:31;;;;;;;16.98;7.70;;;;;;;;;;5093235;28;20040;-76
2022/01/25 12:16:16;;;;;;;18.38;7.72;;;;;;;;;;5094829;28;20067;-76
2022/01/25 12:18:57;;;;;;;12.85;6.45;;;;;;;;;;5094597;28;20064;-75
2022/01/25 12:21:42;;;;;;;17.15;7.13;;;;;;;;;;5092819;28;20032;-74
2022/01/25 12:24:19;;;;;;;19.95;7.55;;;;;;;;;;5093115;28;20070;-77
2022/01/25 12:27:10;;;;;;;16.20;7.10;;;;;;;;;;5093175;28;20040;-77
2022/01/25 12:29:41;;;;;;;13.98;6.55;;;;;;;;;;5093518;28;20036;-78
2022/01/25 12:32:17;;;;;;;14.55;6.25;;;;;;;;;;5076281;28;20032;-75
2022/01/25 12:35:02;;;;;;;14.48;6.32;;;;;;;;;;5094129;28;20030;-75
2022/01/25 12:37:43;;;;;;;12.82;6.03;;;;;;;;;;5094209;28;20032;-74
2022/01/25 12:40:25;;;;;;;15.68;7.63;;;;;;;;;;5092876;28;20024;-76
2022/01/25 12:42:51;;;;;;;15.27;6.90;;;;;;;;;;5092705;28;20039;-75
2022/01/25 12:45:18;;;;;;;15.73;7.78;;;;;;;;;;5092777;28;20020;-75
2022/01/25 12:47:54;;;;;;;18.73;8.18;;;;;;;;;;5092663;28;20528;-75
2022/01/25 12:50:20;;;;;;;16.17;8.00;;;;;;;;;;5092695;28;20389;-75
2022/01/25 12:52:47;;;;;;;16.13;7.80;;;;;;;;;;5092710;28;20103;-77
2022/01/25 12:55:13;;;;;;;18.52;7.90;;;;;;;;;;5092745;28;20035;-75
2022/01/25 12:57:53;;;;;;;19.38;8.27;;;;;;;;;;5092592;28;20097;-73
2022/01/25 13:00:19;;;;;;;20.55;8.00;;;;;;;;;;5076336;28;20028;-76
2022/01/25 13:02:45;;;;;;;18.80;7.88;;;;;;;;;;5093927;28;20434;-77
2022/01/25 13:05:19;;;;;;;16.35;7.68;;;;;;;;;;5092700;28;20024;-75
2022/01/25 13:07:45;;;;;;;18.85;8.20;;;;;;;;;;5093702;28;20032;-75
2022/01/25 13:10:23;;;;;;;21.30;9.82;;;;;;;;;;5093768;28;20016;-78
2022/01/25 13:13:10;;;;;;;25.50;9.00;;;;;;;;;;5092408;28;20039;-74
2022/01/25 13:15:52;;;;;;;18.15;7.93;;;;;;;;;;5093518;28;20046;-74
2022/01/25 13:18:18;;;;;;;20.42;7.90;;;;;;;;;;5092406;28;20112;-75
2022/01/25 13:20:48;;;;;;;17.52;7.47;;;;;;;;;;5092149;28;20020;-77
2022/01/25 13:23:14;;;;;;;15.35;7.38;;;;;;;;;;5092294;28;20021;-75
2022/01/25 13:26:07;;;;;;;18.38;8.07;;;;;;;;;;5093408;28;20476;-74
2022/01/25 13:31:00;;;;;;;22.45;8.18;;;;;;;;;;5093361;28;20028;-74
2022/01/25 13:33:28;;;;;;;19.33;7.88;;;;;;;;;;5094193;28;20492;-74
2022/01/25 13:35:56;;;;;;;18.45;8.18;;;;;;;;;;5100543;28;20020;-73
2022/01/25 13:38:27;;;;;;;18.48;8.43;;;;;;;;;;5098804;28;20025;-74
2022/01/25 13:40:58;;;;;;;16.10;7.90;;;;;;;;;;5100125;28;20537;-75
2022/01/25 13:46:08;;;;;;;19.33;7.53;;;;;;;;;;5099047;28;20036;-73
2022/01/25 13:48:35;;;;;;;18.38;7.88;;;;;;;;;;5098647;28;20114;-73
2022/01/25 13:51:05;;;;;;;15.70;6.97;;;;;;;;;;5100155;28;20028;-75
2022/01/25 13:53:31;;;;;;;20.50;6.43;;;;;;;;;;5098739;28;20035;-76
2022/01/25 13:55:58;;;;;;;16.42;6.68;;;;;;;;;;5100175;28;20028;-75
2022/01/25 13:58:25;;;;;;;11.35;5.95;;;;;;;;;;5100022;28;20030;-75
2022/01/25 14:00:51;;;;;;;15.57;7.32;;;;;;;;;;5098528;28;20065;-74
2022/01/25 14:03:18;;;;;;;16.42;6.72;;;;;;;;;;5099942;28;20036;-74
2022/01/25 14:05:44;;;;;;;15.65;7.28;;;;;;;;;;5098392;28;20024;-76
2022/01/25 14:08:11;;;;;;;15.70;7.07;;;;;;;;;;5100187;28;20024;-76
2022/01/25 14:10:42;;;;;;;14.52;7.00;;;;;;;;;;5099796;28;20028;-72
2022/01/25 14:24:12;;;;;;;11.65;5.80;;;;;;;;;;5098763;28;20034;-76
2022/01/25 14:26:40;;;;;;;14.80;6.72;;;;;;;;;;5097658;28;20081;-76
2022/01/25 14:29:19;;;;;;;14.02;6.10;;;;;;;;;;5099326;28;20484;-72
2022/01/25 14:31:46;;;;;;;13.68;6.45;;;;;;;;;;5098398;28;20768;-75
2022/01/25 14:34:14;;;;;;;17.40;6.65;;;;;;;;;;5100071;28;20099;-73
2022/01/25 14:36:42;;;;;;;16.88;7.40;;;;;;;;;;5098241;28;20035;-72
2022/01/25 14:39:09;;;;;;;16.60;7.22;;;;;;;;;;5098449;28;20077;-74
2022/01/25 14:41:37;;;;;;;18.05;7.43;;;;;;;;;;5081262;28;20040;-72
2022/01/25 14:44:06;;;;;;;14.98;7.05;;;;;;;;;;5099372;28;20113;-72
2022/01/25 14:46:35;;;;;;;15.52;7.22;;;;;;;;;;5094374;28;20020;-74
2022/01/25 14:49:06;;;;;;;15.75;7.15;;;;;;;;;;5096537;28;20024;-74
2022/01/25 14:51:43;;;;;;;13.70;6.78;;;;;;;;;;5096268;28;20051;-76
2022/01/25 14:54:11;;;;;;;17.17;7.30;;;;;;;;;;5095129;28;20396;-72
2022/01/25 14:56:46;;;;;;;18.40;7.15;;;;;;;;;;5096269;28;20106;-72
2022/01/25 14:59:31;;;;;;;18.75;7.03;;;;;;;;;;5096210;28;20097;-72
2022/01/25 15:02:02;;;;;;;17.25;7.15;;;;;;;;;;5096138;28;20032;-72
2022/01/25 15:04:31;;;;;;;18.80;7.85;;;;;;;;;;5094760;28;20021;-72
2022/01/25 15:06:58;;;;;;;17.38;7.80;;;;;;;;;;5096121;28;20042;-72
2022/01/25 15:09:24;;;;;;;15.98;7.22;;;;;;;;;;5095784;28;20035;-71
2022/01/25 15:11:52;;;;;;;17.27;7.60;;;;;;;;;;5094290;28;20109;-71
2022/01/25 15:14:21;;;;;;;16.50;7.43;;;;;;;;;;5095965;28;20020;-71
2022/01/25 15:16:48;;;;;;;17.38;7.47;;;;;;;;;;5094374;28;20028;-72
2022/01/25 15:19:18;;;;;;;17.73;8.10;;;;;;;;;;5094454;28;20438;-75
2022/01/25 15:21:46;;;;;;;18.67;8.18;;;;;;;;;;5094358;28;20140;-75
2022/01/25 15:24:12;;;;;;;21.17;9.02;;;;;;;;;;5095607;28;20024;-75
2022/01/25 15:26:38;;;;;;;20.00;8.52;;;;;;;;;;5094197;28;20557;-74
2022/01/25 15:29:07;;;;;;;23.17;8.80;;;;;;;;;;5094226;28;20028;-76
2022/01/25 15:31:33;;;;;;;23.80;9.13;;;;;;;;;;5095298;28;20020;-72
2022/01/25 15:33:59;;;;;;;19.90;10.13;;;;;;;;;;5094077;28;20024;-71
2022/01/25 15:36:25;;;;;;;21.58;9.68;;;;;;;;;;5094049;28;20035;-71
2022/01/25 15:38:52;;;;;;;20.48;9.80;;;;;;;;;;5095712;28;20081;-70
2022/01/25 15:41:22;;;;;;;20.42;9.80;;;;;;;;;;5095198;28;20032;-75
2022/01/25 15:43:54;;;;;;;21.10;9.65;;;;;;;;;;5093844;28;20028;-72
2022/01/25 15:48:47;;;;;;;22.88;10.23;;;;;;;;;;5094873;28;20039;-76
2022/01/25 15:51:14;;;;;;;26.05;9.85;;;;;;;;;;5092919;28;20020;-77
2022/01/25 15:53:40;;;;;;;27.90;10.55;;;;;;;;;;5093185;28;20468;-78
2022/01/25 15:56:06;;;;;;;29.50;10.40;;;;;;;;;;5093172;28;20028;-78
2022/01/25 15:58:32;;;;;;;24.17;10.40;;;;;;;;;;5092939;28;20020;-78
2022/01/25 16:00:58;;;;;;;23.48;9.82;;;;;;;;;;5094986;28;20059;-74
2022/01/25 16:03:26;;;;;;;22.30;9.77;;;;;;;;;;5093725;28;20062;-73
2022/01/25 16:05:53;;;;;;;24.50;11.20;;;;;;;;;;5093093;28;20082;-77
2022/01/25 16:08:19;;;;;;;26.38;10.52;;;;;;;;;;5093651;28;20020;-79
2022/01/25 16:10:46;;;;;;;22.02;9.57;;;;;;;;;;5095311;28;20055;-79
2022/01/25 16:13:12;;;;;;;22.05;10.38;;;;;;;;;;5093451;28;20047;-79
2022/01/25 16:15:40;;;;;;;22.02;10.10;;;;;;;;;;5093412;28;20081;-73
2022/01/25 16:18:06;;;;;;;21.30;9.73;;;;;;;;;;5094817;28;20370;-78
2022/01/25 16:20:34;;;;;;;21.80;9.50;;;;;;;;;;5093363;28;20035;-80
2022/01/25 16:23:01;;;;;;;22.08;9.85;;;;;;;;;;5094408;28;20481;-80
2022/01/25 16:25:28;;;;;;;22.20;10.63;;;;;;;;;;5095128;28;20479;-75
2022/01/25 16:27:54;;;;;;;24.58;9.90;;;;;;;;;;5094263;28;20055;-74
2022/01/25 16:30:21;;;;;;;23.45;9.93;;;;;;;;;;5094829;28;20439;-74